Time;durP1;ratioP1;P1;durP2;ratioP2;P2;SDS_P1;SDS_P2;PMS_P1;PMS_P2;Temp;Humidity;BMP_temperature;BMP_pressure;BME280_temperature;BME280_humidity;BME280_pressure;Samples;Min_cycle;Max_cycle;Signal;HPM_P1;HPM_P2
2022/11/15 00:01:17;;;;;;;11.70;3.37;;;11.20;99.90;;;;;;5091722;28;20506;-74
2022/11/15 00:04:05;;;;;;;3.80;2.70;;;11.20;99.90;;;;;;5082915;28;20579;-74
2022/11/15 00:06:50;;;;;;;5.37;3.47;;;11.10;99.90;;;;;;5084228;28;20455;-75
2022/11/15 00:09:36;;;;;;;6.73;3.27;;;11.00;99.90;;;;;;5090671;28;20448;-74
2022/11/15 00:12:21;;;;;;;9.00;4.30;;;11.00;99.90;;;;;;5086346;28;20954;-74
2022/11/15 00:15:08;;;;;;;6.60;3.23;;;11.00;99.90;;;;;;5081365;28;20522;-74
2022/11/15 00:17:53;;;;;;;4.00;3.27;;;11.00;99.90;;;;;;5088711;28;20547;-74
2022/11/15 00:20:41;;;;;;;7.03;3.93;;;11.00;99.90;;;;;;5097283;28;20438;-74
2022/11/15 00:23:26;;;;;;;5.83;3.17;;;11.10;99.90;;;;;;5091191;28;20461;-74
2022/11/15 00:26:14;;;;;;;6.00;3.57;;;11.00;99.90;;;;;;5080904;28;20450;-74
2022/11/15 00:28:59;;;;;;;8.77;3.20;;;11.10;99.90;;;;;;5090060;28;20804;-74
2022/11/15 00:31:45;;;;;;;6.73;3.60;;;11.10;99.90;;;;;;5081998;28;20510;-74
2022/11/15 00:34:31;;;;;;;5.07;3.97;;;11.10;99.90;;;;;;5079247;28;20822;-74
2022/11/15 00:37:18;;;;;;;8.60;3.50;;;11.00;99.90;;;;;;5085423;28;20465;-74
2022/11/15 00:40:04;;;;;;;6.83;3.93;;;11.10;99.90;;;;;;5091166;28;20981;-74
2022/11/15 00:42:49;;;;;;;3.63;3.13;;;11.10;99.90;;;;;;5085620;28;20420;-74
2022/11/15 00:45:35;;;;;;;13.83;3.37;;;11.10;99.90;;;;;;5082847;28;20420;-74
2022/11/15 00:48:20;;;;;;;8.70;3.70;;;11.10;99.90;;;;;;5080862;28;20448;-74
2022/11/15 00:51:06;;;;;;;7.77;4.67;;;11.00;99.90;;;;;;5088200;28;20506;-74
2022/11/15 00:53:53;;;;;;;6.93;3.20;;;11.00;99.90;;;;;;5081256;28;21002;-74
2022/11/15 00:56:38;;;;;;;6.20;3.10;;;10.90;99.90;;;;;;5085484;28;21065;-74
2022/11/15 00:59:24;;;;;;;5.50;3.13;;;10.90;99.90;;;;;;5084213;28;20938;-74
2022/11/15 01:02:09;;;;;;;4.20;3.00;;;10.90;99.90;;;;;;5084395;28;20925;-74
2022/11/15 01:04:55;;;;;;;6.10;3.60;;;10.90;99.90;;;;;;5083659;28;20413;-74
2022/11/15 01:07:41;;;;;;;5.10;3.73;;;10.90;99.90;;;;;;5092717;28;20803;-74
2022/11/15 01:10:28;;;;;;;6.37;3.60;;;10.90;99.90;;;;;;5088551;28;20531;-74
2022/11/15 01:13:13;;;;;;;14.30;3.87;;;10.80;99.90;;;;;;5084040;28;20446;-74
2022/11/15 01:15:59;;;;;;;5.63;3.43;;;10.80;99.90;;;;;;5082065;28;20446;-74
2022/11/15 01:18:45;;;;;;;11.50;3.70;;;10.70;99.90;;;;;;5092785;28;21027;-74
2022/11/15 01:21:31;;;;;;;5.27;3.83;;;10.70;99.90;;;;;;5089587;28;20441;-74
2022/11/15 01:24:16;;;;;;;9.80;4.37;;;10.60;99.90;;;;;;5078623;28;20413;-74
2022/11/15 01:27:03;;;;;;;6.40;3.20;;;10.50;99.90;;;;;;5084683;28;20473;-74
2022/11/15 01:29:48;;;;;;;7.17;3.30;;;10.50;99.90;;;;;;5086404;28;20812;-74
2022/11/15 01:32:34;;;;;;;5.53;3.27;;;10.40;99.90;;;;;;5089522;28;20532;-74
2022/11/15 01:35:20;;;;;;;9.10;4.00;;;10.40;99.90;;;;;;5081228;28;20437;-74
2022/11/15 01:38:05;;;;;;;3.90;3.23;;;10.40;99.90;;;;;;5090537;28;21056;-74
2022/11/15 01:40:50;;;;;;;9.43;3.73;;;10.40;99.90;;;;;;5089811;28;20583;-74
2022/11/15 01:43:38;;;;;;;8.97;3.73;;;10.30;99.90;;;;;;5081637;28;20423;-74
2022/11/15 01:46:28;;;;;;;4.90;3.93;;;10.30;99.90;;;;;;5092102;28;20981;-74
2022/11/15 01:49:16;;;;;;;13.00;4.20;;;10.20;99.90;;;;;;5091157;28;20854;-74
2022/11/15 01:52:04;;;;;;;6.17;3.50;;;10.30;99.90;;;;;;5089945;28;20913;-74
2022/11/15 01:54:56;;;;;;;11.33;4.00;;;10.40;99.90;;;;;;5084920;28;20420;-74
2022/11/15 01:57:43;;;;;;;5.13;3.67;;;10.40;99.90;;;;;;5086357;28;20543;-74
2022/11/15 02:00:32;;;;;;;3.67;3.30;;;10.40;99.90;;;;;;5087464;28;20437;-74
2022/11/15 02:03:17;;;;;;;5.10;3.93;;;10.40;99.90;;;;;;5082027;28;20494;-74
2022/11/15 02:06:04;;;;;;;7.00;3.80;;;10.50;99.90;;;;;;5092736;28;20977;-74
2022/11/15 02:08:50;;;;;;;6.30;3.97;;;10.50;99.90;;;;;;5086858;28;20508;-74
2022/11/15 02:11:36;;;;;;;12.63;3.80;;;10.60;99.90;;;;;;5084328;28;20849;-74
2022/11/15 02:14:22;;;;;;;6.23;4.20;;;10.60;99.90;;;;;;5078299;28;20470;-74
2022/11/15 02:17:22;;;;;;;5.73;3.40;;;10.70;99.90;;;;;;5083505;28;20539;-74
2022/11/15 02:20:29;;;;;;;6.67;3.60;;;10.60;99.90;;;;;;5084764;28;20522;-73
2022/11/15 02:23:40;;;;;;;7.00;3.60;;;10.60;99.90;;;;;;5083903;28;20415;-73
2022/11/15 02:26:51;;;;;;;5.70;4.30;;;10.60;99.90;;;;;;5091684;28;20947;-74
2022/11/15 02:29:53;;;;;;;7.70;4.10;;;10.60;99.90;;;;;;5092023;28;20447;-74
2022/11/15 02:32:45;;;;;;;5.60;3.87;;;10.50;99.90;;;;;;5090435;28;20966;-74
2022/11/15 02:35:42;;;;;;;4.10;3.30;;;10.40;99.90;;;;;;5100056;28;20440;-74
2022/11/15 02:38:36;;;;;;;7.50;4.20;;;10.30;99.90;;;;;;5075482;28;20462;-73
2022/11/15 02:41:29;;;;;;;4.00;3.40;;;10.20;99.90;;;;;;5083234;28;20409;-74
2022/11/15 02:44:18;;;;;;;6.10;3.30;;;10.10;99.90;;;;;;5087331;28;20431;-74
2022/11/15 02:47:14;;;;;;;5.60;3.70;;;10.10;99.90;;;;;;5094853;28;20426;-74
2022/11/15 02:50:06;;;;;;;5.20;3.60;;;10.00;99.90;;;;;;5095461;28;20469;-74
2022/11/15 02:52:52;;;;;;;4.37;3.43;;;10.00;99.90;;;;;;5087956;28;20793;-73
2022/11/15 02:55:42;;;;;;;4.00;3.50;;;9.90;99.90;;;;;;5086966;28;20971;-73
2022/11/15 02:59:01;;;;;;;7.33;3.73;;;9.80;99.90;;;;;;5084699;28;20453;-74
2022/11/15 03:01:57;;;;;;;6.37;3.40;;;9.70;99.90;;;;;;5077164;28;20562;-73
2022/11/15 03:04:47;;;;;;;6.10;3.20;;;9.70;99.90;;;;;;5088422;28;20412;-73
2022/11/15 03:07:40;;;;;;;7.00;3.80;;;9.70;99.90;;;;;;5099409;28;21044;-74
2022/11/15 03:10:32;;;;;;;4.93;3.53;;;9.60;99.90;;;;;;5086556;28;20456;-74
2022/11/15 03:13:26;;;;;;;6.13;3.87;;;9.50;99.90;;;;;;5080149;28;20450;-73
2022/11/15 03:16:19;;;;;;;4.87;3.77;;;9.50;99.90;;;;;;5082623;28;21018;-74
2022/11/15 03:19:14;;;;;;;5.90;3.27;;;9.60;99.90;;;;;;5087832;28;20437;-74
2022/11/15 03:22:03;;;;;;;4.77;3.90;;;9.60;99.90;;;;;;5087536;28;20462;-74
2022/11/15 03:24:54;;;;;;;9.00;4.30;;;9.50;99.90;;;;;;5095497;28;20551;-74
2022/11/15 03:27:44;;;;;;;5.20;3.87;;;9.60;99.90;;;;;;5091026;28;20512;-74
2022/11/15 03:30:33;;;;;;;8.90;3.90;;;9.60;99.90;;;;;;5084658;28;20470;-74
2022/11/15 03:33:20;;;;;;;5.77;4.60;;;9.60;99.90;;;;;;5086211;28;20491;-74
2022/11/15 03:36:06;;;;;;;5.03;3.87;;;9.60;99.90;;;;;;5100241;28;20433;-74
2022/11/15 03:38:56;;;;;;;5.00;3.63;;;9.70;99.90;;;;;;5084454;28;20439;-74
2022/11/15 03:41:49;;;;;;;6.87;4.10;;;9.70;99.90;;;;;;5083638;28;20454;-73
2022/11/15 03:44:42;;;;;;;3.80;3.30;;;9.80;99.90;;;;;;5086468;28;20963;-74
2022/11/15 03:47:33;;;;;;;6.87;3.93;;;9.90;99.90;;;;;;5084493;28;20564;-74
2022/11/15 03:50:21;;;;;;;15.20;3.50;;;10.00;99.90;;;;;;5086864;28;20497;-74
2022/11/15 03:53:06;;;;;;;6.20;3.60;;;9.90;99.90;;;;;;5085833;28;20899;-74
2022/11/15 03:55:52;;;;;;;4.97;3.93;;;9.90;99.90;;;;;;5089374;28;20420;-74
2022/11/15 03:58:39;;;;;;;5.60;4.20;;;10.00;99.90;;;;;;5086902;28;20502;-74
2022/11/15 04:01:24;;;;;;;4.80;3.27;;;9.90;99.90;;;;;;5076463;28;20450;-73
2022/11/15 04:04:10;;;;;;;5.23;4.07;;;9.90;99.90;;;;;;5096559;28;20433;-73
2022/11/15 04:06:56;;;;;;;11.50;4.80;;;10.00;99.90;;;;;;5098750;28;20512;-74
2022/11/15 04:12:42;;;;;;;7.20;3.90;;;9.90;99.90;;;;;;5080906;28;21013;-74
2022/11/15 04:15:30;;;;;;;6.27;4.20;;;10.10;99.90;;;;;;5091600;28;20405;-73
2022/11/15 04:18:15;;;;;;;6.23;3.60;;;10.10;99.90;;;;;;5086725;28;20472;-72
2022/11/15 04:24:15;;;;;;;5.70;4.03;;;10.00;99.90;;;;;;5060690;28;20455;-73
2022/11/15 04:27:01;;;;;;;9.33;4.33;;;10.00;99.90;;;;;;5082691;28;20539;-74
2022/11/15 04:29:46;;;;;;;4.77;3.57;;;10.10;99.90;;;;;;5088621;28;20473;-74
2022/11/15 04:32:33;;;;;;;5.80;3.93;;;10.10;99.90;;;;;;5081474;28;20447;-74
2022/11/15 04:35:18;;;;;;;17.97;4.53;;;10.10;99.90;;;;;;5088940;28;20462;-74
2022/11/15 04:38:06;;;;;;;6.67;3.83;;;10.10;99.90;;;;;;5086554;28;20500;-74
2022/11/15 04:40:52;;;;;;;6.60;3.80;;;10.30;99.90;;;;;;5082166;28;20546;-74
2022/11/15 04:43:38;;;;;;;6.90;4.50;;;10.20;99.90;;;;;;5089368;28;20603;-74
2022/11/15 04:46:24;;;;;;;5.20;3.90;;;10.20;99.90;;;;;;5093504;28;20437;-73
2022/11/15 04:49:11;;;;;;;13.70;4.47;;;10.20;99.90;;;;;;5092937;28;20827;-74
2022/11/15 04:51:56;;;;;;;5.27;4.20;;;10.20;99.90;;;;;;5088834;28;20819;-74
2022/11/15 04:54:43;;;;;;;6.60;4.40;;;10.20;99.90;;;;;;5096633;28;20541;-74
2022/11/15 04:57:28;;;;;;;5.43;3.93;;;10.20;99.90;;;;;;5092839;28;21028;-73
2022/11/15 05:00:17;;;;;;;5.60;3.97;;;10.20;99.90;;;;;;5088803;28;20428;-74
2022/11/15 05:06:07;;;;;;;11.20;4.60;;;10.30;99.90;;;;;;5088237;28;20487;-74
2022/11/15 05:08:53;;;;;;;6.67;4.43;;;10.30;99.90;;;;;;5088785;28;20438;-73
2022/11/15 05:11:38;;;;;;;6.17;4.40;;;10.40;99.90;;;;;;5080202;28;20482;-74
2022/11/15 05:14:24;;;;;;;7.60;4.67;;;10.40;99.90;;;;;;5086220;28;20442;-74
2022/11/15 05:17:09;;;;;;;5.10;3.70;;;10.40;99.90;;;;;;5092570;28;20457;-74
2022/11/15 05:19:55;;;;;;;5.30;3.77;;;10.30;99.90;;;;;;5086346;28;20983;-74
2022/11/15 05:22:42;;;;;;;5.23;4.00;;;10.40;99.90;;;;;;5089852;28;20424;-74
2022/11/15 05:25:28;;;;;;;12.37;8.53;;;10.40;99.90;;;;;;5088922;28;20428;-74
2022/11/15 05:28:14;;;;;;;9.70;7.20;;;10.20;99.90;;;;;;5086029;28;21122;-74
2022/11/15 05:31:02;;;;;;;10.30;7.50;;;10.30;99.90;;;;;;5087051;28;20539;-74
2022/11/15 05:33:48;;;;;;;10.17;7.70;;;10.30;99.90;;;;;;5087623;28;20709;-74
2022/11/15 05:36:37;;;;;;;10.07;6.87;;;10.30;99.90;;;;;;5085251;28;20540;-74
2022/11/15 05:39:25;;;;;;;9.37;5.80;;;10.30;99.90;;;;;;5082918;28;20453;-73
2022/11/15 05:42:12;;;;;;;9.60;5.70;;;10.30;99.90;;;;;;5089258;28;20437;-74
2022/11/15 05:44:59;;;;;;;19.67;8.00;;;10.30;99.90;;;;;;5096451;28;20526;-74
2022/11/15 05:47:45;;;;;;;9.07;5.00;;;10.30;99.90;;;;;;5087545;28;20443;-74
2022/11/15 05:50:31;;;;;;;7.03;5.10;;;10.20;99.90;;;;;;5079613;28;20602;-74
2022/11/15 05:53:20;;;;;;;14.43;4.83;;;10.20;99.90;;;;;;5091170;28;20448;-73
2022/11/15 05:56:09;;;;;;;13.73;6.00;;;10.20;99.90;;;;;;5102379;28;20436;-74
2022/11/15 05:58:55;;;;;;;6.43;4.83;;;10.10;99.90;;;;;;5094117;28;20847;-74
2022/11/15 06:01:41;;;;;;;23.90;6.50;;;10.10;99.90;;;;;;5096702;28;20428;-74
2022/11/15 06:04:27;;;;;;;6.17;5.27;;;10.10;99.90;;;;;;5083273;28;20423;-75
2022/11/15 06:07:12;;;;;;;5.37;4.40;;;10.00;99.90;;;;;;5084808;28;20469;-74
2022/11/15 06:09:58;;;;;;;5.03;4.53;;;9.90;99.90;;;;;;5085360;28;20598;-74
2022/11/15 06:12:45;;;;;;;11.47;5.37;;;9.90;99.90;;;;;;5087236;28;20516;-74
2022/11/15 06:15:30;;;;;;;7.30;4.27;;;9.90;99.90;;;;;;5091901;28;20855;-73
2022/11/15 06:18:17;;;;;;;15.03;6.40;;;9.90;99.90;;;;;;5094057;28;20550;-73
2022/11/15 06:21:02;;;;;;;6.77;4.70;;;10.00;99.90;;;;;;5083008;28;20437;-74
2022/11/15 06:23:48;;;;;;;5.97;4.70;;;10.00;99.90;;;;;;5089361;28;20808;-73
2022/11/15 06:26:34;;;;;;;6.70;4.70;;;10.10;99.90;;;;;;5090533;28;20456;-74
2022/11/15 06:29:21;;;;;;;9.57;5.30;;;10.10;99.90;;;;;;5088231;28;20442;-74
2022/11/15 06:32:06;;;;;;;6.30;4.80;;;10.00;99.90;;;;;;5092503;28;20428;-74
2022/11/15 06:34:52;;;;;;;5.90;4.80;;;10.00;99.90;;;;;;5099606;28;20518;-74
2022/11/15 06:37:37;;;;;;;15.20;5.70;;;10.00;99.90;;;;;;5099405;28;20513;-73
2022/11/15 06:40:23;;;;;;;8.63;4.70;;;10.00;99.90;;;;;;5082870;28;20909;-74
2022/11/15 06:43:09;;;;;;;5.80;4.63;;;9.90;99.90;;;;;;5095959;28;20809;-74
2022/11/15 06:45:56;;;;;;;8.67;4.97;;;9.90;99.90;;;;;;5085579;28;20820;-74
2022/11/15 06:48:41;;;;;;;5.70;4.23;;;10.00;99.90;;;;;;5091434;28;20516;-74
2022/11/15 06:51:27;;;;;;;7.90;5.20;;;9.90;99.90;;;;;;5086232;28;20449;-74
2022/11/15 06:54:12;;;;;;;8.27;5.60;;;9.90;99.90;;;;;;5095082;28;20496;-74
2022/11/15 06:56:58;;;;;;;8.20;4.60;;;9.80;99.90;;;;;;5098396;28;21006;-75
2022/11/15 06:59:44;;;;;;;7.03;5.10;;;9.90;99.90;;;;;;5088684;28;20539;-74
2022/11/15 07:02:31;;;;;;;14.60;4.60;;;9.90;99.90;;;;;;5099102;28;20925;-74
2022/11/15 07:05:17;;;;;;;7.40;4.90;;;10.00;99.90;;;;;;5093728;28;20484;-74
2022/11/15 07:08:03;;;;;;;8.50;5.57;;;10.00;99.90;;;;;;5092827;28;20565;-74
2022/11/15 07:10:49;;;;;;;6.97;5.03;;;10.00;99.90;;;;;;5079730;28;20478;-74
2022/11/15 07:13:37;;;;;;;11.20;4.83;;;9.90;99.90;;;;;;5083783;28;20992;-74
2022/11/15 07:16:22;;;;;;;5.97;4.20;;;10.00;99.90;;;;;;5090378;28;20444;-75
2022/11/15 07:19:09;;;;;;;6.23;3.97;;;9.90;99.90;;;;;;5089003;28;20454;-74
2022/11/15 07:21:55;;;;;;;7.87;4.50;;;10.00;99.90;;;;;;5093235;28;20550;-73
2022/11/15 07:24:40;;;;;;;16.00;4.83;;;10.00;99.90;;;;;;5100759;28;20461;-74
2022/11/15 07:27:26;;;;;;;6.40;3.93;;;10.20;99.90;;;;;;5090496;28;20874;-74
2022/11/15 07:30:13;;;;;;;6.33;4.20;;;10.10;99.90;;;;;;5083767;28;20448;-74
2022/11/15 07:33:00;;;;;;;5.10;3.93;;;10.20;99.90;;;;;;5085545;28;20449;-74
2022/11/15 07:35:49;;;;;;;6.67;4.53;;;10.20;99.90;;;;;;5084519;28;20962;-74
2022/11/15 07:38:35;;;;;;;8.73;5.53;;;10.30;99.90;;;;;;5086639;28;20457;-74
2022/11/15 07:41:21;;;;;;;12.43;5.90;;;10.30;99.90;;;;;;5093012;28;20423;-74
2022/11/15 07:44:06;;;;;;;15.60;6.30;;;10.40;99.90;;;;;;5095591;28;20496;-74
2022/11/15 07:46:52;;;;;;;8.10;5.80;;;10.50;99.90;;;;;;5096560;28;21040;-74
2022/11/15 07:49:37;;;;;;;6.63;5.10;;;10.50;99.90;;;;;;5087020;28;21024;-75
2022/11/15 07:52:25;;;;;;;8.53;5.80;;;10.50;99.90;;;;;;5097913;28;20493;-74
2022/11/15 07:55:10;;;;;;;11.63;7.70;;;10.60;99.90;;;;;;5089338;28;20438;-74
2022/11/15 07:58:01;;;;;;;11.37;7.27;;;10.70;99.90;;;;;;5084117;28;20519;-74
2022/11/15 08:00:46;;;;;;;12.53;8.40;;;10.70;99.90;;;;;;5080208;28;20409;-74
2022/11/15 08:03:33;;;;;;;15.37;9.87;;;10.70;99.90;;;;;;5095031;28;20455;-74
2022/11/15 08:06:18;;;;;;;9.67;7.10;;;10.80;99.90;;;;;;5087176;28;20407;-75
2022/11/15 08:09:05;;;;;;;11.60;7.13;;;10.80;99.90;;;;;;5089614;28;20967;-73
2022/11/15 08:11:51;;;;;;;12.00;7.07;;;10.90;99.90;;;;;;5098926;28;20440;-73
2022/11/15 08:14:37;;;;;;;11.90;7.07;;;10.90;99.90;;;;;;5103037;28;20457;-74
2022/11/15 08:17:23;;;;;;;8.83;6.73;;;11.00;99.90;;;;;;5090850;28;20658;-73
2022/11/15 08:20:09;;;;;;;8.80;6.93;;;11.00;99.90;;;;;;5084909;28;20480;-74
2022/11/15 08:22:55;;;;;;;11.00;8.07;;;11.10;99.90;;;;;;5089046;28;20417;-74
2022/11/15 08:25:42;;;;;;;11.90;7.37;;;11.20;99.90;;;;;;5087902;28;20583;-76
2022/11/15 08:28:27;;;;;;;15.90;7.60;;;11.20;99.90;;;;;;5090512;28;20512;-74
2022/11/15 08:31:16;;;;;;;9.10;6.90;;;11.30;99.90;;;;;;5089542;28;20528;-76
2022/11/15 08:34:02;;;;;;;12.20;7.07;;;11.30;99.90;;;;;;5086432;28;20454;-74
2022/11/15 08:36:48;;;;;;;12.60;7.40;;;11.30;99.90;;;;;;5088142;28;20480;-75
2022/11/15 08:39:33;;;;;;;9.07;7.43;;;11.40;99.90;;;;;;5086193;28;20465;-76
2022/11/15 08:42:20;;;;;;;12.00;7.30;;;11.40;99.90;;;;;;5089900;28;20421;-76
2022/11/15 08:45:07;;;;;;;8.50;7.10;;;11.40;99.90;;;;;;5082777;28;20416;-75
2022/11/15 08:47:52;;;;;;;10.83;6.47;;;11.40;99.90;;;;;;5080820;28;20451;-75
2022/11/15 08:50:38;;;;;;;12.77;6.83;;;11.50;99.90;;;;;;5094052;28;20465;-75
2022/11/15 08:53:24;;;;;;;11.00;7.67;;;11.60;99.90;;;;;;5090499;28;20413;-76
2022/11/15 08:56:10;;;;;;;8.97;6.40;;;11.60;99.90;;;;;;5088350;28;20956;-76
2022/11/15 08:58:57;;;;;;;9.60;6.30;;;11.70;99.90;;;;;;5082385;28;20440;-76
2022/11/15 09:01:43;;;;;;;12.63;6.43;;;11.70;99.90;;;;;;5091461;28;20422;-76
2022/11/15 09:04:29;;;;;;;13.33;7.23;;;11.80;99.90;;;;;;5097936;28;20902;-76
2022/11/15 09:07:15;;;;;;;9.80;6.83;;;11.80;99.90;;;;;;5075802;28;20559;-75
2022/11/15 09:10:00;;;;;;;11.23;6.60;;;11.90;99.90;;;;;;5089858;28;20404;-76
2022/11/15 09:12:48;;;;;;;10.80;5.87;;;12.00;99.90;;;;;;5089458;28;20413;-74
2022/11/15 09:15:35;;;;;;;8.70;5.83;;;12.00;99.90;;;;;;5093342;28;20419;-76
2022/11/15 09:18:22;;;;;;;7.93;5.70;;;12.10;99.90;;;;;;5079905;28;20517;-76
2022/11/15 09:21:08;;;;;;;17.40;6.50;;;12.20;99.90;;;;;;5101475;28;20417;-76
2022/11/15 09:23:54;;;;;;;8.33;6.60;;;12.20;99.90;;;;;;5098134;28;20407;-76
2022/11/15 09:26:39;;;;;;;6.90;6.03;;;12.20;99.90;;;;;;5103041;28;20416;-75
2022/11/15 09:29:25;;;;;;;8.47;6.10;;;12.30;99.90;;;;;;5091898;28;20424;-75
2022/11/15 09:32:12;;;;;;;10.80;5.97;;;12.40;99.90;;;;;;5096395;28;20978;-76
2022/11/15 09:34:57;;;;;;;8.90;5.90;;;12.40;99.90;;;;;;5104059;28;20426;-76
2022/11/15 09:37:43;;;;;;;16.97;5.77;;;12.40;99.90;;;;;;5094287;28;20555;-74
2022/11/15 09:40:30;;;;;;;9.10;5.70;;;12.50;99.90;;;;;;5087547;28;20424;-76
2022/11/15 09:43:34;;;;;;;8.57;6.03;;;12.50;99.90;;;;;;5096285;28;20791;-76
2022/11/15 09:46:25;;;;;;;7.83;5.43;;;12.60;99.90;;;;;;5093144;28;20450;-73
2022/11/15 09:49:15;;;;;;;7.50;4.60;;;12.70;99.90;;;;;;5088732;28;20491;-75
2022/11/15 09:52:01;;;;;;;4.90;3.93;;;12.80;99.90;;;;;;5089173;28;20448;-76
2022/11/15 09:54:50;;;;;;;4.20;3.50;;;12.90;99.90;;;;;;5087690;28;20427;-75
2022/11/15 09:57:45;;;;;;;7.47;4.10;;;13.00;99.90;;;;;;5080732;28;20504;-75
2022/11/15 10:00:37;;;;;;;8.00;3.40;;;13.10;99.90;;;;;;5103472;28;21072;-75
2022/11/15 10:03:28;;;;;;;4.10;2.43;;;13.30;99.90;;;;;;5095510;28;20456;-76
2022/11/15 10:06:24;;;;;;;3.53;2.50;;;13.50;99.90;;;;;;5093621;28;20424;-75
2022/11/15 10:09:16;;;;;;;3.60;2.60;;;13.60;99.90;;;;;;5098327;28;20415;-76
2022/11/15 10:12:02;;;;;;;4.43;2.70;;;13.60;99.90;;;;;;5100974;28;20436;-75
2022/11/15 10:14:50;;;;;;;3.90;2.47;;;13.70;99.90;;;;;;5098888;28;20456;-76
2022/11/15 10:18:05;;;;;;;5.13;2.90;;;13.70;99.90;;;;;;5084919;28;21023;-75
2022/11/15 10:20:55;;;;;;;5.50;2.93;;;13.70;99.90;;;;;;5090447;28;20452;-73
2022/11/15 10:23:42;;;;;;;3.83;2.60;;;13.80;99.90;;;;;;5093865;28;20434;-75
2022/11/15 10:26:28;;;;;;;4.37;2.47;;;13.70;99.90;;;;;;5086450;28;20915;-75
2022/11/15 10:29:19;;;;;;;3.20;2.33;;;13.70;99.90;;;;;;5088147;28;20437;-76
2022/11/15 10:32:05;;;;;;;3.80;2.40;;;13.70;99.90;;;;;;5102010;28;20472;-76
2022/11/15 10:34:51;;;;;;;4.77;2.40;;;13.70;99.90;;;;;;5089909;28;20449;-76
2022/11/15 10:37:36;;;;;;;4.00;2.80;;;13.70;99.90;;;;;;5089930;28;20568;-75
2022/11/15 10:40:25;;;;;;;4.20;2.77;;;13.70;99.90;;;;;;5087785;28;21050;-76
2022/11/15 10:43:19;;;;;;;7.03;2.60;;;13.70;99.90;;;;;;5086797;28;20904;-76
2022/11/15 10:46:20;;;;;;;4.03;2.63;;;13.70;99.90;;;;;;5090923;28;20422;-75
2022/11/15 10:49:15;;;;;;;5.90;3.07;;;13.70;99.90;;;;;;5089368;28;20554;-75
2022/11/15 10:52:05;;;;;;;5.80;2.70;;;13.60;99.90;;;;;;5089761;28;20471;-76
2022/11/15 10:54:54;;;;;;;6.40;2.80;;;13.70;99.90;;;;;;5094202;28;20786;-76
2022/11/15 10:57:51;;;;;;;4.57;2.50;;;13.80;99.90;;;;;;5086049;28;20501;-75
2022/11/15 11:00:39;;;;;;;6.40;2.10;;;13.80;99.90;;;;;;5096144;28;20450;-73
2022/11/15 11:03:32;;;;;;;3.37;2.27;;;13.90;99.90;;;;;;5093867;28;20429;-75
2022/11/15 11:06:19;;;;;;;4.90;2.10;;;13.90;99.90;;;;;;5086119;28;20423;-76
2022/11/15 11:09:06;;;;;;;4.83;3.43;;;14.00;99.90;;;;;;5088796;28;20419;-75
2022/11/15 11:11:53;;;;;;;5.83;3.27;;;14.00;99.90;;;;;;5103744;28;20447;-75
2022/11/15 11:14:40;;;;;;;5.70;2.23;;;14.10;99.90;;;;;;5107631;28;20416;-74
2022/11/15 11:17:36;;;;;;;4.00;2.50;;;14.20;99.90;;;;;;5087120;28;20441;-75
2022/11/15 11:20:28;;;;;;;3.20;2.10;;;14.20;99.90;;;;;;5097631;28;20420;-75
2022/11/15 11:23:35;;;;;;;5.60;1.43;;;14.30;99.90;;;;;;5087283;28;20804;-74
2022/11/15 11:26:36;;;;;;;3.10;1.97;;;14.30;99.90;;;;;;5089624;28;20452;-76
2022/11/15 11:29:34;;;;;;;3.67;1.90;;;14.20;99.90;;;;;;5100965;28;20772;-75
2022/11/15 11:32:46;;;;;;;3.67;1.80;;;14.10;99.90;;;;;;5107118;28;20513;-75
2022/11/15 11:35:37;;;;;;;2.40;1.67;;;14.20;99.90;;;;;;5096802;28;20454;-75
2022/11/15 11:38:43;;;;;;;5.80;1.70;;;14.20;99.90;;;;;;5107378;28;20415;-76
2022/11/15 11:41:44;;;;;;;2.83;1.60;;;14.30;99.90;;;;;;5099181;28;20466;-76
2022/11/15 11:44:35;;;;;;;3.73;1.90;;;14.30;99.90;;;;;;5089558;28;20437;-75
2022/11/15 11:47:23;;;;;;;2.57;1.40;;;14.30;99.90;;;;;;5096231;28;20537;-76
2022/11/15 11:50:18;;;;;;;3.63;1.73;;;14.40;99.90;;;;;;5102268;28;20429;-76
2022/11/15 11:53:12;;;;;;;2.80;1.60;;;14.40;99.90;;;;;;5106177;28;20476;-74
2022/11/15 11:56:03;;;;;;;3.43;1.67;;;14.40;99.90;;;;;;5096366;28;20476;-76
2022/11/15 11:58:49;;;;;;;2.77;2.00;;;14.40;99.90;;;;;;5108907;28;21004;-76
2022/11/15 12:01:40;;;;;;;3.10;1.80;;;14.40;99.90;;;;;;5107253;28;20765;-75
2022/11/15 12:04:30;;;;;;;4.97;2.37;;;14.50;99.90;;;;;;5094629;28;20469;-76
2022/11/15 12:07:24;;;;;;;5.43;1.87;;;14.50;99.90;;;;;;5096095;28;20469;-75
2022/11/15 12:10:20;;;;;;;5.50;1.70;;;14.60;99.90;;;;;;5108702;28;20506;-75
2022/11/15 12:13:11;;;;;;;4.90;1.60;;;14.70;99.90;;;;;;5112618;28;20489;-73
2022/11/15 12:16:07;;;;;;;2.63;1.67;;;14.80;99.90;;;;;;5088239;28;20421;-75
2022/11/15 12:18:55;;;;;;;6.90;2.70;;;14.80;99.90;;;;;;5103448;28;20718;-75
2022/11/15 12:21:46;;;;;;;4.50;1.97;;;14.90;99.90;;;;;;5105649;28;20420;-75
2022/11/15 12:24:38;;;;;;;2.73;1.90;;;15.00;99.90;;;;;;5083033;28;20515;-76
2022/11/15 12:27:33;;;;;;;2.80;1.60;;;15.10;99.90;;;;;;5094867;28;20450;-76
2022/11/15 12:30:20;;;;;;;5.13;1.80;;;15.10;99.90;;;;;;5089105;28;20478;-75
2022/11/15 12:33:06;;;;;;;3.33;1.90;;;15.10;99.90;;;;;;5110480;28;20448;-76
2022/11/15 12:36:00;;;;;;;2.60;1.50;;;15.00;99.90;;;;;;5087089;28;20475;-74
2022/11/15 12:38:56;;;;;;;3.50;1.73;;;15.00;99.90;;;;;;5087154;28;20481;-73
2022/11/15 12:41:44;;;;;;;2.83;1.67;;;15.00;99.90;;;;;;5088259;28;20485;-75
2022/11/15 12:44:58;;;;;;;3.20;2.00;;;15.00;99.90;;;;;;5084305;28;20412;-75
2022/11/15 12:47:44;;;;;;;2.13;1.60;;;15.00;99.90;;;;;;5081916;28;20421;-75
2022/11/15 12:50:58;;;;;;;3.70;2.33;;;14.90;99.90;;;;;;5103043;28;20565;-75
2022/11/15 12:53:44;;;;;;;3.90;1.80;;;14.90;99.90;;;;;;5065600;28;20433;-75
2022/11/15 12:56:29;;;;;;;3.47;1.87;;;14.80;99.90;;;;;;5078535;28;20893;-75
2022/11/15 12:59:58;;;;;;;3.90;2.07;;;14.80;99.90;;;;;;5092212;28;20983;-76
2022/11/15 13:02:45;;;;;;;3.50;1.90;;;14.80;99.90;;;;;;5097697;28;20433;-75
2022/11/15 13:05:57;;;;;;;3.60;2.13;;;14.80;99.90;;;;;;5082376;28;20442;-75
2022/11/15 13:08:50;;;;;;;3.93;2.30;;;14.70;99.90;;;;;;5081536;28;20527;-75
2022/11/15 13:11:51;;;;;;;3.63;1.97;;;14.60;99.90;;;;;;5090885;28;20448;-73
2022/11/15 13:14:51;;;;;;;3.30;1.50;;;14.60;99.90;;;;;;5081128;28;20425;-76
2022/11/15 13:17:40;;;;;;;7.13;1.93;;;14.60;99.90;;;;;;5095208;28;20494;-75
2022/11/15 13:20:28;;;;;;;5.53;1.67;;;14.60;99.90;;;;;;5094129;28;20808;-73
2022/11/15 13:23:16;;;;;;;6.47;2.10;;;14.60;99.90;;;;;;5096524;28;20441;-75
2022/11/15 13:26:16;;;;;;;2.53;1.70;;;14.60;99.90;;;;;;5084377;28;20975;-75
2022/11/15 13:29:02;;;;;;;3.00;2.20;;;14.50;99.90;;;;;;5092076;28;20454;-75
2022/11/15 13:31:49;;;;;;;2.70;1.90;;;14.50;99.90;;;;;;5095935;28;20449;-76
2022/11/15 13:34:36;;;;;;;4.27;2.47;;;14.50;99.90;;;;;;5087779;28;20419;-74
2022/11/15 13:37:32;;;;;;;2.80;1.73;;;14.50;99.90;;;;;;5084386;28;20515;-75
2022/11/15 13:40:27;;;;;;;4.37;2.97;;;14.50;99.90;;;;;;5094916;28;20424;-75
2022/11/15 13:43:30;;;;;;;3.80;2.40;;;14.50;99.90;;;;;;5089263;28;20516;-74
2022/11/15 13:46:18;;;;;;;6.33;2.80;;;14.50;99.90;;;;;;5090305;28;20427;-75
2022/11/15 13:49:10;;;;;;;7.63;2.40;;;14.60;99.90;;;;;;5087983;28;20438;-75
2022/11/15 13:51:57;;;;;;;3.00;1.67;;;14.50;99.90;;;;;;5088550;28;20440;-76
2022/11/15 13:54:47;;;;;;;3.27;2.10;;;14.50;99.90;;;;;;5080625;28;20446;-75
2022/11/15 13:57:40;;;;;;;5.00;2.07;;;14.50;99.90;;;;;;5093632;28;20985;-75
2022/11/15 14:00:34;;;;;;;2.53;1.50;;;14.50;99.90;;;;;;5084285;28;20569;-76
2022/11/15 14:03:21;;;;;;;5.90;1.73;;;14.50;99.90;;;;;;5086816;28;20462;-75
2022/11/15 14:06:11;;;;;;;5.50;2.13;;;14.50;99.90;;;;;;5098185;28;20411;-75
2022/11/15 14:09:16;;;;;;;5.60;2.03;;;14.50;99.90;;;;;;5095413;28;20981;-75
2022/11/15 14:12:04;;;;;;;2.53;1.70;;;14.60;99.90;;;;;;5087780;28;21067;-74
2022/11/15 14:14:49;;;;;;;3.80;2.00;;;14.60;99.90;;;;;;5077919;28;20409;-74
2022/11/15 14:17:38;;;;;;;3.50;1.57;;;14.60;99.90;;;;;;5089824;28;20957;-76
2022/11/15 14:20:31;;;;;;;6.73;2.17;;;14.60;99.90;;;;;;5092505;28;20479;-75
2022/11/15 14:23:27;;;;;;;3.53;1.87;;;14.60;99.90;;;;;;5080041;28;20485;-72
2022/11/15 14:26:29;;;;;;;2.10;1.40;;;14.60;99.90;;;;;;5092323;28;20774;-74
2022/11/15 14:29:24;;;;;;;2.57;1.50;;;14.60;99.90;;;;;;5085668;28;20429;-73
2022/11/15 14:32:15;;;;;;;4.83;1.90;;;14.60;99.90;;;;;;5092323;28;20976;-74
2022/11/15 14:35:02;;;;;;;2.67;1.67;;;14.60;99.90;;;;;;5086626;28;20408;-72
2022/11/15 14:37:48;;;;;;;8.10;1.80;;;14.60;99.90;;;;;;5084362;28;20499;-73
2022/11/15 14:40:35;;;;;;;3.10;1.50;;;14.50;99.90;;;;;;5084050;28;20416;-73
2022/11/15 14:43:20;;;;;;;3.93;1.90;;;14.50;99.90;;;;;;5092297;28;20440;-73
2022/11/15 14:46:06;;;;;;;4.43;1.70;;;14.40;99.90;;;;;;5084665;28;20423;-73
2022/11/15 14:48:52;;;;;;;2.93;1.73;;;14.40;99.90;;;;;;5100938;28;20424;-74